Bochem Mumbai — VRHJ8 — position and weather

sailwx.info

Track history (hours):
 
Tides and Currents Weather Stations Pressure Air Temp Water Temp Dewpoint Dewpoint Depression Visibility Wind Speed Wind Dir Waves Ship Positions

Bochem Mumbai

Last reported at 2018-Jan-19 23:38 UTC. Time now 2018-Jan-20 03:33 UTC.
Position N 39°12' W 009°51'.

Length 171 m; draft 10.2 m.

Type: Tanker. MMSI: 477932400.

Date/timePositionNaut miles runAvg speedWind from/ knotsBaromVisibWave heightAir tempDewpointWater temp
2018-Jan-19 23:38N 39°12' W 009°51'110.5
2018-Jan-19 23:30N 39°10' W 009°51'510.6
2018-Jan-19 23:01N 39°05' W 009°51'510.7
2018-Jan-19 22:31N 38°60' W 009°51'510.4
2018-Jan-19 22:00N 38°54' W 009°51'510.5
2018-Jan-19 21:31N 38°49' W 009°51'510.4
2018-Jan-19 21:00N 38°44' W 009°51'510.2
2018-Jan-19 20:30N 38°39' W 009°50'510.3
2018-Jan-19 20:00N 38°34' W 009°48'510.1
2018-Jan-19 19:30N 38°29' W 009°47'510.2
2018-Jan-19 19:00N 38°24' W 009°46'510.0
2018-Jan-19 18:30N 38°19' W 009°45'510.2
2018-Jan-19 18:00N 38°14' W 009°42'510.2
2018-Jan-19 17:30N 38°09' W 009°41'510.2
2018-Jan-19 17:00N 38°04' W 009°40'5 9.8
2018-Jan-19 16:30N 37°60' W 009°38'5 9.9
2018-Jan-19 16:00N 37°55' W 009°38'101 9.1
2018-Jan-19 04:53N 36°36' W 008°17'712.8
2018-Jan-19 04:20N 36°35' W 008°09'513.1
2018-Jan-19 03:58N 36°34' W 008°03'12212.2
2018-Jan-18 17:58N 35°57' W 005°39'511.8
2018-Jan-18 17:31N 35°59' W 005°32'611.7
2018-Jan-18 17:00N 36°00' W 005°25'511.0
2018-Jan-18 16:30N 36°01' W 005°19'510.7
2018-Jan-18 16:01N 36°02' W 005°12'510.9
2018-Jan-18 15:31N 36°03' W 005°05'611.0
2018-Jan-18 15:01N 36°04' W 004°59'611.3
2018-Jan-18 14:30N 36°06' W 004°52'611.9
2018-Jan-18 14:00N 36°07' W 004°45'  
Track history (hours):
 
Tides and Currents Weather Stations Pressure Air Temp Water Temp Dewpoint Dewpoint Depression Visibility Wind Speed Wind Dir Waves Ship Positions

Bochem Mumbai

Last reported at 2018-Jan-19 23:38 UTC. Time now 2018-Jan-20 03:33 UTC.
Position N 39°12' W 009°51'.

Length 171 m; draft 10.2 m.

Type: Tanker. MMSI: 477932400.

Date/timePositionNaut miles runAvg speedWind from/ knotsBaromVisibWave heightAir tempDewpointWater temp
2018-Jan-19 23:38N 39°12' W 009°51'110.5
2018-Jan-19 23:30N 39°10' W 009°51'510.6
2018-Jan-19 23:01N 39°05' W 009°51'510.7
2018-Jan-19 22:31N 38°60' W 009°51'510.4
2018-Jan-19 22:00N 38°54' W 009°51'510.5
2018-Jan-19 21:31N 38°49' W 009°51'510.4
2018-Jan-19 21:00N 38°44' W 009°51'510.2
2018-Jan-19 20:30N 38°39' W 009°50'510.3
2018-Jan-19 20:00N 38°34' W 009°48'510.1
2018-Jan-19 19:30N 38°29' W 009°47'510.2
2018-Jan-19 19:00N 38°24' W 009°46'510.0
2018-Jan-19 18:30N 38°19' W 009°45'510.2
2018-Jan-19 18:00N 38°14' W 009°42'510.2
2018-Jan-19 17:30N 38°09' W 009°41'510.2
2018-Jan-19 17:00N 38°04' W 009°40'5 9.8
2018-Jan-19 16:30N 37°60' W 009°38'5 9.9
2018-Jan-19 16:00N 37°55' W 009°38'101 9.1
2018-Jan-19 04:53N 36°36' W 008°17'712.8
2018-Jan-19 04:20N 36°35' W 008°09'513.1
2018-Jan-19 03:58N 36°34' W 008°03'12212.2
2018-Jan-18 17:58N 35°57' W 005°39'511.8
2018-Jan-18 17:31N 35°59' W 005°32'611.7
2018-Jan-18 17:00N 36°00' W 005°25'511.0
2018-Jan-18 16:30N 36°01' W 005°19'510.7
2018-Jan-18 16:01N 36°02' W 005°12'510.9
2018-Jan-18 15:31N 36°03' W 005°05'611.0
2018-Jan-18 15:01N 36°04' W 004°59'611.3
2018-Jan-18 14:30N 36°06' W 004°52'611.9
2018-Jan-18 14:00N 36°07' W 004°45'  

Dump ship's entire track history